NAA weather

Narrabri Airport
Narrabri, New South Wales, Australia

Public forecast

Using degrees Celsius for public forecast. Weather courtesy of forecast.io.

Current aviation weather report (METAR) for Narrabri Airport

Retrieved 2019/12/13 10:00 UTC (11 minutes ago):

YNBR 131000Z AUTO 24010KT 9999 // NCD 29/M06 Q1009

Closest aviation forecast (TAF) to Narrabri Airport

Forecast is more than 12 hours old.

Closest forecast is Tamworth Airport, 69.9 nm (129.4 km) SE. Retrieved 2019/12/12 06:00 UTC (1 day ago):

TAF YSTW 120509Z 1206/1300 21013KT 8000 -FU NSC FM121000 12013KT 7000 -FU SCT020 FM121400 16008KT 7000 -FU SCT020 FM121800 09007KT 7000 -SHRA -FU SCT020 BKN030 INTER 1218/1300 5000 SHRA BKN015 PROB30 1209/1300 4000 FU